Time;durP1;ratioP1;P1;durP2;ratioP2;P2;SDS_P1;SDS_P2;PMS_P1;PMS_P2;Temp;Humidity;BMP_temperature;BMP_pressure;BME280_temperature;BME280_humidity;BME280_pressure;Samples;Min_cycle;Max_cycle;Signal;HPM_P1;HPM_P2
2024/04/17 00:01:03;;;;;;;5.15;1.30;;;;;;;;;;6252769;22;20015;-63
2024/04/17 00:03:32;;;;;;;7.70;1.70;;;;;;;;;;6247421;22;20005;-64
2024/04/17 00:05:57;;;;;;;4.80;1.20;;;;;;;;;;6236983;22;20013;-61
2024/04/17 00:08:28;;;;;;;9.98;1.40;;;;;;;;;;6255257;22;20005;-62
2024/04/17 00:10:54;;;;;;;5.32;1.25;;;;;;;;;;6253075;22;20015;-63
2024/04/17 00:13:22;;;;;;;6.28;1.20;;;;;;;;;;6249017;22;20107;-62
2024/04/17 00:15:49;;;;;;;;;;;;;;;;;;6254759;22;20012;-62
2024/04/17 00:18:17;;;;;;;6.63;1.20;;;;;;;;;;6273957;22;19930;-64
2024/04/17 00:20:43;;;;;;;5.80;1.33;;;;;;;;;;6254292;22;20130;-63
2024/04/17 00:23:13;;;;;;;4.15;1.13;;;;;;;;;;6250881;22;20012;-63
2024/04/17 00:25:42;;;;;;;5.97;0.73;;;;;;;;;;6243791;22;20029;-62
2024/04/17 00:28:10;;;;;;;13.43;3.45;;;;;;;;;;6251011;22;20015;-62
2024/04/17 00:30:35;;;;;;;34.10;13.48;;;;;;;;;;6255382;22;20001;-63
2024/04/17 00:33:04;;;;;;;17.50;5.75;;;;;;;;;;6255595;22;20830;-63
2024/04/17 00:35:29;;;;;;;11.10;3.95;;;;;;;;;;6229844;22;20439;-63
2024/04/17 00:37:58;;;;;;;16.25;4.32;;;;;;;;;;6255695;22;20016;-62
2024/04/17 00:40:24;;;;;;;20.60;5.00;;;;;;;;;;6254823;22;20177;-62
2024/04/17 00:42:55;;;;;;;14.40;3.28;;;;;;;;;;6253100;22;20008;-63
2024/04/17 00:45:27;;;;;;;7.72;2.33;;;;;;;;;;6242329;22;20152;-64
2024/04/17 00:47:55;;;;;;;12.57;2.10;;;;;;;;;;6255541;22;20020;-62
2024/04/17 00:50:23;;;;;;;3.47;1.20;;;;;;;;;;6254061;22;20052;-62
2024/04/17 00:52:51;;;;;;;8.25;1.50;;;;;;;;;;6253595;22;20009;-62
2024/04/17 00:55:17;;;;;;;5.88;1.48;;;;;;;;;;6244254;22;20012;-62
2024/04/17 00:57:46;;;;;;;5.45;1.00;;;;;;;;;;6253512;22;20008;-63
2024/04/17 01:00:15;;;;;;;4.47;1.10;;;;;;;;;;6253905;22;20003;-62
2024/04/17 01:02:43;;;;;;;;;;;;;;;;;;6254311;22;20053;-62
2024/04/17 01:05:08;;;;;;;3.55;1.27;;;;;;;;;;6238681;22;19932;-63
2024/04/17 01:07:38;;;;;;;4.18;1.38;;;;;;;;;;6246717;22;20001;-63
2024/04/17 01:10:04;;;;;;;4.18;1.10;;;;;;;;;;6257155;22;20127;-63
2024/04/17 01:12:32;;;;;;;3.50;1.20;;;;;;;;;;6253599;22;20008;-63
2024/04/17 01:14:58;;;;;;;3.78;0.82;;;;;;;;;;6247606;22;20044;-62
2024/04/17 01:17:29;;;;;;;5.50;0.88;;;;;;;;;;6248175;22;20015;-62
2024/04/17 01:19:55;;;;;;;3.63;1.02;;;;;;;;;;6253737;22;20001;-62
2024/04/17 01:22:23;;;;;;;2.88;0.90;;;;;;;;;;6254147;22;20023;-62
2024/04/17 01:24:51;;;;;;;2.85;0.98;;;;;;;;;;6249206;22;20040;-62
2024/04/17 01:27:20;;;;;;;2.55;0.88;;;;;;;;;;6247071;22;20023;-63
2024/04/17 01:29:46;;;;;;;2.47;0.82;;;;;;;;;;6253901;22;20020;-62
2024/04/17 01:32:14;;;;;;;5.50;1.27;;;;;;;;;;6252014;22;20024;-61
2024/04/17 01:34:40;;;;;;;3.05;1.00;;;;;;;;;;6249774;22;20166;-62
2024/04/17 01:37:08;;;;;;;5.15;0.82;;;;;;;;;;6252253;22;20012;-62
2024/04/17 01:39:34;;;;;;;5.80;1.30;;;;;;;;;;6245088;22;20032;-62
2024/04/17 01:42:05;;;;;;;1.95;0.75;;;;;;;;;;6250467;22;20012;-62
2024/04/17 01:44:30;;;;;;;2.03;0.73;;;;;;;;;;6249678;22;19997;-62
2024/04/17 01:46:59;;;;;;;6.47;1.13;;;;;;;;;;6251897;22;20015;-62
2024/04/17 01:49:25;;;;;;;6.30;1.17;;;;;;;;;;6246742;22;20077;-61
2024/04/17 01:51:53;;;;;;;6.60;1.00;;;;;;;;;;6251177;22;20001;-62
2024/04/17 01:54:19;;;;;;;4.30;1.20;;;;;;;;;;6249384;22;20012;-63
2024/04/17 01:56:48;;;;;;;7.53;1.08;;;;;;;;;;6248976;22;20015;-62
2024/04/17 01:59:16;;;;;;;4.50;1.02;;;;;;;;;;6247321;22;20001;-65
2024/04/17 02:01:45;;;;;;;5.13;1.10;;;;;;;;;;6251739;22;20114;-62
2024/04/17 02:04:11;;;;;;;4.30;0.90;;;;;;;;;;6224886;22;20001;-62
2024/04/17 02:06:39;;;;;;;4.30;1.23;;;;;;;;;;6209782;22;20005;-63
2024/04/17 02:09:05;;;;;;;5.15;1.00;;;;;;;;;;6206504;22;20016;-62
2024/04/17 02:11:33;;;;;;;4.47;1.10;;;;;;;;;;6206183;22;20137;-62
2024/04/17 02:13:59;;;;;;;3.60;0.95;;;;;;;;;;6191539;22;20001;-63
2024/04/17 02:16:30;;;;;;;6.22;0.88;;;;;;;;;;6206000;22;20020;-62
2024/04/17 02:18:55;;;;;;;4.10;0.95;;;;;;;;;;6204978;22;20012;-62
2024/04/17 02:21:24;;;;;;;5.30;1.13;;;;;;;;;;6204471;22;20006;-62
2024/04/17 02:23:49;;;;;;;7.32;1.27;;;;;;;;;;6181725;22;20052;-63
2024/04/17 02:26:17;;;;;;;4.20;1.20;;;;;;;;;;6208108;22;20491;-63
2024/04/17 02:28:43;;;;;;;2.72;1.00;;;;;;;;;;6209338;22;20110;-63
2024/04/17 02:31:11;;;;;;;7.15;1.42;;;;;;;;;;6205571;22;20017;-62
2024/04/17 02:33:39;;;;;;;3.63;0.93;;;;;;;;;;6187303;22;20045;-62
2024/04/17 02:36:09;;;;;;;7.32;1.10;;;;;;;;;;6202255;22;20009;-62
2024/04/17 02:38:34;;;;;;;2.95;0.90;;;;;;;;;;6208266;22;20002;-63
2024/04/17 02:41:02;;;;;;;2.90;1.30;;;;;;;;;;6207535;22;20049;-62
2024/04/17 02:43:28;;;;;;;3.63;0.93;;;;;;;;;;6206449;22;20017;-62
2024/04/17 02:45:56;;;;;;;7.10;1.08;;;;;;;;;;6243454;22;20008;-62
2024/04/17 02:48:22;;;;;;;4.15;1.00;;;;;;;;;;6253777;22;19997;-62
2024/04/17 02:50:53;;;;;;;10.65;1.10;;;;;;;;;;6259951;22;20020;-62
2024/04/17 02:53:18;;;;;;;3.90;0.90;;;;;;;;;;6248365;22;20012;-62
2024/04/17 02:55:47;;;;;;;5.45;0.98;;;;;;;;;;6248446;22;20008;-62
2024/04/17 02:58:14;;;;;;;2.47;1.20;;;;;;;;;;6254831;22;20013;-62
2024/04/17 03:00:43;;;;;;;7.15;1.25;;;;;;;;;;6255854;22;20016;-66
2024/04/17 03:03:08;;;;;;;5.00;1.48;;;;;;;;;;6256861;22;20000;-62
2024/04/17 03:05:37;;;;;;;6.90;1.08;;;;;;;;;;6247043;22;20004;-63
2024/04/17 03:08:05;;;;;;;5.30;1.23;;;;;;;;;;6252580;22;20018;-62
2024/04/17 03:10:33;;;;;;;4.55;1.00;;;;;;;;;;6252648;22;20009;-62
2024/04/17 03:12:59;;;;;;;3.80;0.73;;;;;;;;;;6255103;22;20032;-62
2024/04/17 03:15:28;;;;;;;3.35;0.82;;;;;;;;;;6249265;22;20105;-62
2024/04/17 03:17:53;;;;;;;5.93;1.10;;;;;;;;;;6247544;22;20009;-62
2024/04/17 03:20:21;;;;;;;3.88;1.05;;;;;;;;;;6255348;22;20005;-63
2024/04/17 03:22:50;;;;;;;1.23;0.70;;;;;;;;;;6255741;22;20026;-63
2024/04/17 03:25:21;;;;;;;7.60;1.13;;;;;;;;;;6251865;22;20025;-62
2024/04/17 03:27:47;;;;;;;2.85;0.77;;;;;;;;;;6249032;22;20023;-64
2024/04/17 03:30:15;;;;;;;1.05;0.60;;;;;;;;;;6258721;22;20016;-63
2024/04/17 03:32:41;;;;;;;1.42;0.60;;;;;;;;;;6255543;22;20016;-63
2024/04/17 03:35:11;;;;;;;2.78;0.68;;;;;;;;;;6247167;22;20005;-62
2024/04/17 03:37:40;;;;;;;2.10;0.52;;;;;;;;;;6251521;22;19996;-63
2024/04/17 03:40:09;;;;;;;2.00;1.00;;;;;;;;;;6251381;22;20115;-62
2024/04/17 03:42:40;;;;;;;1.42;0.75;;;;;;;;;;6255007;22;20000;-63
2024/04/17 03:45:08;;;;;;;4.57;0.90;;;;;;;;;;6247739;22;20075;-61
2024/04/17 03:47:37;;;;;;;5.70;1.00;;;;;;;;;;6253816;22;20020;-64
2024/04/17 03:50:06;;;;;;;2.78;0.80;;;;;;;;;;6248613;22;20421;-62
2024/04/17 03:52:32;;;;;;;5.30;1.02;;;;;;;;;;6255992;22;20102;-61
2024/04/17 03:55:00;;;;;;;4.22;1.15;;;;;;;;;;6247666;22;20017;-63
2024/04/17 03:57:27;;;;;;;3.35;1.00;;;;;;;;;;6251708;22;20016;-62
2024/04/17 03:59:58;;;;;;;2.53;0.90;;;;;;;;;;6244271;22;20001;-62
2024/04/17 04:02:24;;;;;;;1.67;0.98;;;;;;;;;;6253207;22;20012;-62
2024/04/17 04:04:52;;;;;;;4.43;1.13;;;;;;;;;;6248184;22;20019;-62
2024/04/17 04:07:18;;;;;;;2.55;1.08;;;;;;;;;;6255119;22;20037;-63
2024/04/17 04:09:46;;;;;;;2.80;1.10;;;;;;;;;;6243892;22;20015;-62
2024/04/17 04:12:12;;;;;;;3.60;1.17;;;;;;;;;;6252613;22;20001;-63
2024/04/17 04:14:40;;;;;;;3.45;1.02;;;;;;;;;;6248523;22;20092;-62
2024/04/17 04:17:10;;;;;;;5.25;1.20;;;;;;;;;;6256932;22;20415;-62
2024/04/17 04:19:38;;;;;;;2.13;1.10;;;;;;;;;;6249698;22;20000;-63
2024/04/17 04:22:04;;;;;;;4.40;1.05;;;;;;;;;;6253751;22;20015;-62
2024/04/17 04:24:32;;;;;;;3.95;0.93;;;;;;;;;;6251608;22;20005;-63
2024/04/17 04:26:58;;;;;;;2.67;1.17;;;;;;;;;;6254982;22;20019;-62
2024/04/17 04:29:26;;;;;;;5.00;0.93;;;;;;;;;;6258136;22;20008;-62
2024/04/17 04:31:52;;;;;;;4.00;1.20;;;;;;;;;;6247274;22;20016;-62
2024/04/17 04:34:23;;;;;;;3.90;1.00;;;;;;;;;;6246205;22;20005;-63
2024/04/17 04:36:48;;;;;;;5.70;1.55;;;;;;;;;;6252926;22;20011;-62
2024/04/17 04:39:17;;;;;;;6.13;1.50;;;;;;;;;;6255897;22;20008;-63
2024/04/17 04:41:42;;;;;;;4.07;1.50;;;;;;;;;;6249343;22;20409;-62
2024/04/17 04:44:10;;;;;;;1.13;0.73;;;;;;;;;;6245481;22;20001;-62
2024/04/17 04:46:36;;;;;;;3.03;0.75;;;;;;;;;;6246856;22;20011;-62
2024/04/17 04:49:04;;;;;;;6.68;1.13;;;;;;;;;;6253353;22;20040;-63
2024/04/17 04:51:40;;;;;;;6.35;1.25;;;;;;;;;;6251136;22;20000;-63
2024/04/17 04:54:11;;;;;;;2.45;1.02;;;;;;;;;;6211401;22;20001;-63
2024/04/17 04:56:37;;;;;;;4.07;1.08;;;;;;;;;;6204742;22;20001;-63
2024/04/17 04:59:06;;;;;;;6.85;2.15;;;;;;;;;;6206855;22;20082;-63
2024/04/17 05:01:32;;;;;;;4.45;1.40;;;;;;;;;;6207452;22;20020;-63
2024/04/17 05:04:00;;;;;;;1.40;0.70;;;;;;;;;;6127871;22;20002;-63
2024/04/17 05:06:28;;;;;;;2.90;0.82;;;;;;;;;;6207246;23;20064;-63
2024/04/17 05:08:59;;;;;;;2.97;0.47;;;;;;;;;;6203458;22;20006;-64
2024/04/17 05:11:28;;;;;;;4.35;0.90;;;;;;;;;;6207941;22;20001;-62
2024/04/17 05:14:05;;;;;;;5.07;1.60;;;;;;;;;;6169028;22;20021;-63
2024/04/17 05:16:31;;;;;;;8.20;1.77;;;;;;;;;;6251195;22;20016;-63
2024/04/17 05:19:03;;;;;;;10.75;2.60;;;;;;;;;;6252529;22;20001;-63
2024/04/17 05:21:29;;;;;;;7.35;2.10;;;;;;;;;;6251340;22;19997;-63
2024/04/17 05:24:00;;;;;;;6.55;1.58;;;;;;;;;;6227829;22;20515;-62
2024/04/17 05:26:27;;;;;;;3.65;1.15;;;;;;;;;;6290667;22;20004;-63
2024/04/17 05:28:56;;;;;;;4.03;0.77;;;;;;;;;;6256898;22;20008;-63
2024/04/17 05:31:21;;;;;;;;;;;;;;;;;;6253819;22;20005;-63
2024/04/17 05:33:50;;;;;;;3.13;1.17;;;;;;;;;;6210027;22;19928;-63
2024/04/17 05:36:15;;;;;;;5.40;1.00;;;;;;;;;;6286597;22;20076;-63
2024/04/17 05:38:44;;;;;;;2.28;0.95;;;;;;;;;;6252314;22;20001;-63
2024/04/17 05:41:12;;;;;;;2.28;1.25;;;;;;;;;;6253875;22;20022;-63
2024/04/17 05:43:43;;;;;;;6.32;1.80;;;;;;;;;;6236747;22;20048;-63
2024/04/17 05:46:09;;;;;;;2.33;1.23;;;;;;;;;;6281199;22;21088;-64
2024/04/17 05:48:37;;;;;;;2.47;1.00;;;;;;;;;;6253240;22;20009;-63
2024/04/17 05:51:03;;;;;;;2.85;0.82;;;;;;;;;;6252598;22;20001;-62
2024/04/17 05:53:32;;;;;;;2.97;0.70;;;;;;;;;;6251725;22;20011;-63
2024/04/17 05:55:57;;;;;;;9.15;0.77;;;;;;;;;;6241023;22;20031;-62
2024/04/17 05:58:28;;;;;;;1.98;0.73;;;;;;;;;;6255145;22;20004;-62
2024/04/17 06:00:54;;;;;;;4.25;1.23;;;;;;;;;;6253166;22;20122;-63
2024/04/17 06:03:22;;;;;;;5.80;1.48;;;;;;;;;;6255358;22;20020;-63
2024/04/17 06:05:48;;;;;;;6.93;2.28;;;;;;;;;;6265345;22;20107;-64
2024/04/17 06:08:16;;;;;;;10.35;1.63;;;;;;;;;;6254880;22;20110;-63
2024/04/17 06:10:42;;;;;;;3.40;1.05;;;;;;;;;;6254164;22;20001;-62
2024/04/17 06:13:10;;;;;;;3.40;0.70;;;;;;;;;;6253780;22;20028;-62
2024/04/17 06:15:39;;;;;;;2.53;1.00;;;;;;;;;;6245595;22;20008;-64
2024/04/17 06:18:08;;;;;;;5.85;0.75;;;;;;;;;;6248013;22;20009;-64
2024/04/17 06:20:34;;;;;;;2.22;0.90;;;;;;;;;;6254327;22;20011;-62
2024/04/17 06:23:04;;;;;;;6.13;0.93;;;;;;;;;;6252267;22;20020;-64
2024/04/17 06:25:30;;;;;;;5.85;0.63;;;;;;;;;;6226381;22;20015;-62
2024/04/17 06:27:58;;;;;;;3.60;0.82;;;;;;;;;;6248203;22;20004;-62
2024/04/17 06:30:24;;;;;;;2.65;0.80;;;;;;;;;;6253596;22;20131;-62
2024/04/17 06:32:58;;;;;;;6.53;0.80;;;;;;;;;;6255376;22;20040;-62
2024/04/17 06:35:24;;;;;;;3.53;0.70;;;;;;;;;;6248160;22;20012;-62
2024/04/17 06:37:52;;;;;;;2.58;0.77;;;;;;;;;;6245230;22;20001;-62
2024/04/17 06:40:19;;;;;;;4.97;1.08;;;;;;;;;;6292763;22;20021;-62
2024/04/17 06:42:47;;;;;;;2.30;0.80;;;;;;;;;;6254788;22;20057;-62
2024/04/17 06:45:13;;;;;;;3.80;1.00;;;;;;;;;;6247897;22;20052;-64
2024/04/17 06:47:43;;;;;;;3.95;1.02;;;;;;;;;;6246475;22;20089;-62
2024/04/17 06:50:11;;;;;;;6.47;1.20;;;;;;;;;;6252992;22;20008;-62
2024/04/17 06:52:39;;;;;;;7.53;1.00;;;;;;;;;;6253145;22;20075;-62
2024/04/17 06:55:05;;;;;;;2.03;0.73;;;;;;;;;;6255592;22;20036;-62
2024/04/17 06:57:33;;;;;;;2.40;0.88;;;;;;;;;;6268910;22;20005;-62
2024/04/17 06:59:59;;;;;;;1.83;0.80;;;;;;;;;;6244086;22;19997;-61
2024/04/17 07:02:27;;;;;;;3.97;0.80;;;;;;;;;;6254051;22;20025;-61
2024/04/17 07:04:53;;;;;;;6.20;0.70;;;;;;;;;;6209640;22;20068;-62
2024/04/17 07:07:24;;;;;;;6.07;1.10;;;;;;;;;;6204078;22;20093;-62
2024/04/17 07:09:49;;;;;;;3.40;0.90;;;;;;;;;;6194505;22;20051;-62
2024/04/17 07:12:19;;;;;;;4.03;0.70;;;;;;;;;;6205484;22;20016;-64
2024/04/17 07:14:48;;;;;;;4.28;0.98;;;;;;;;;;6193253;22;20012;-63
2024/04/17 07:17:14;;;;;;;7.75;2.65;;;;;;;;;;6206861;22;20001;-62
2024/04/17 07:19:43;;;;;;;3.63;0.80;;;;;;;;;;6204984;22;20054;-63
2024/04/17 07:22:08;;;;;;;4.13;0.80;;;;;;;;;;6202563;22;20002;-65
2024/04/17 07:24:39;;;;;;;8.95;0.80;;;;;;;;;;6201135;22;20387;-63
2024/04/17 07:27:05;;;;;;;7.05;1.15;;;;;;;;;;6208948;22;20002;-63
2024/04/17 07:29:34;;;;;;;3.03;0.77;;;;;;;;;;6205531;22;20291;-61
2024/04/17 07:32:03;;;;;;;7.40;1.20;;;;;;;;;;6201129;22;19997;-62
2024/04/17 07:34:28;;;;;;;6.43;0.95;;;;;;;;;;6204433;22;20001;-62
2024/04/17 07:36:57;;;;;;;0.98;0.43;;;;;;;;;;6207919;22;20146;-62
2024/04/17 07:39:22;;;;;;;6.50;0.88;;;;;;;;;;6210898;22;20001;-63
2024/04/17 07:41:55;;;;;;;3.20;0.70;;;;;;;;;;6199587;22;20020;-63
2024/04/17 07:44:21;;;;;;;5.30;0.95;;;;;;;;;;6202200;22;20040;-62
2024/04/17 07:46:49;;;;;;;6.18;0.82;;;;;;;;;;6205934;22;20038;-62
2024/04/17 07:49:15;;;;;;;5.20;0.77;;;;;;;;;;6210049;22;20123;-62
2024/04/17 07:51:44;;;;;;;5.28;0.88;;;;;;;;;;6202177;22;20017;-63
2024/04/17 07:54:09;;;;;;;5.93;1.02;;;;;;;;;;6204018;22;20009;-64
2024/04/17 07:56:38;;;;;;;7.68;1.70;;;;;;;;;;6233003;22;20020;-63
2024/04/17 07:59:09;;;;;;;4.82;1.00;;;;;;;;;;6206510;22;20103;-62
2024/04/17 08:01:38;;;;;;;6.82;1.85;;;;;;;;;;6205013;22;20001;-62
2024/04/17 08:04:03;;;;;;;8.60;1.38;;;;;;;;;;6199790;22;21411;-63
2024/04/17 08:06:32;;;;;;;2.58;0.60;;;;;;;;;;6208780;22;20019;-63
2024/04/17 08:08:57;;;;;;;4.45;0.88;;;;;;;;;;6207183;22;20034;-63
2024/04/17 08:11:26;;;;;;;8.65;1.25;;;;;;;;;;6208319;22;20240;-63
2024/04/17 08:13:52;;;;;;;3.10;0.80;;;;;;;;;;6166916;22;20027;-62
2024/04/17 08:16:23;;;;;;;1.23;0.68;;;;;;;;;;6238808;22;20318;-63
2024/04/17 08:18:49;;;;;;;7.07;0.70;;;;;;;;;;6206526;22;20069;-64
2024/04/17 08:21:17;;;;;;;2.88;0.95;;;;;;;;;;6203622;22;20006;-62
2024/04/17 08:23:43;;;;;;;9.32;1.08;;;;;;;;;;6181575;22;20013;-63
2024/04/17 08:26:11;;;;;;;3.67;0.90;;;;;;;;;;6206224;22;20045;-63
2024/04/17 08:28:37;;;;;;;4.68;0.70;;;;;;;;;;6206156;22;20103;-63
2024/04/17 08:31:05;;;;;;;6.28;0.93;;;;;;;;;;6209057;22;20006;-62
2024/04/17 08:33:34;;;;;;;5.72;0.73;;;;;;;;;;6208557;22;20002;-62
2024/04/17 08:36:02;;;;;;;;;;;;;;;;;;6188288;22;20031;-63
2024/04/17 08:38:28;;;;;;;0.93;0.52;;;;;;;;;;6207100;22;19925;-63
2024/04/17 08:40:56;;;;;;;0.90;0.60;;;;;;;;;;6209544;22;20472;-62
2024/04/17 08:43:24;;;;;;;1.95;0.65;;;;;;;;;;6206388;22;20097;-64
2024/04/17 08:45:56;;;;;;;3.95;0.80;;;;;;;;;;6192600;22;20014;-64
2024/04/17 08:48:23;;;;;;;2.60;0.80;;;;;;;;;;6205882;22;20048;-63
2024/04/17 08:50:55;;;;;;;6.97;1.00;;;;;;;;;;6206899;22;20049;-63
2024/04/17 08:53:22;;;;;;;6.75;1.00;;;;;;;;;;6207265;22;20001;-63
2024/04/17 08:55:52;;;;;;;10.82;0.90;;;;;;;;;;6173469;22;20020;-63
2024/04/17 08:58:19;;;;;;;2.58;0.50;;;;;;;;;;6206682;22;20045;-63
2024/04/17 09:00:52;;;;;;;7.40;0.77;;;;;;;;;;6206039;22;20033;-64
2024/04/17 09:03:21;;;;;;;6.05;0.90;;;;;;;;;;6203565;22;20094;-65
2024/04/17 09:05:51;;;;;;;10.10;0.77;;;;;;;;;;6179277;22;20081;-63
2024/04/17 09:08:20;;;;;;;1.40;0.55;;;;;;;;;;6207189;22;20069;-63
2024/04/17 09:10:48;;;;;;;;;;;;;;;;;;6207064;22;20041;-63
2024/04/17 09:13:15;;;;;;;6.82;0.80;;;;;;;;;;6207294;22;19925;-61
2024/04/17 09:15:45;;;;;;;4.38;0.90;;;;;;;;;;6240247;22;19996;-63
2024/04/17 09:18:11;;;;;;;3.20;0.65;;;;;;;;;;6251786;22;20016;-62
2024/04/17 09:20:40;;;;;;;4.22;0.80;;;;;;;;;;6255404;22;20407;-61
2024/04/17 09:23:08;;;;;;;3.78;0.90;;;;;;;;;;6252056;22;20016;-63
2024/04/17 09:25:42;;;;;;;4.25;0.90;;;;;;;;;;6234600;22;20084;-64
2024/04/17 09:28:10;;;;;;;1.75;0.40;;;;;;;;;;6251607;22;20001;-61
2024/04/17 09:30:39;;;;;;;2.63;0.68;;;;;;;;;;6255258;22;20077;-61
2024/04/17 09:33:07;;;;;;;2.47;0.63;;;;;;;;;;6256048;22;20004;-64
2024/04/17 09:35:40;;;;;;;3.30;0.60;;;;;;;;;;6272539;22;20000;-61
2024/04/17 09:38:13;;;;;;;5.75;0.52;;;;;;;;;;6249028;22;20873;-63
2024/04/17 09:40:46;;;;;;;0.57;0.50;;;;;;;;;;6255038;22;20102;-63
2024/04/17 09:43:23;;;;;;;1.80;0.52;;;;;;;;;;6253177;22;20000;-63
2024/04/17 09:45:57;;;;;;;2.33;0.63;;;;;;;;;;6217964;22;20012;-63
2024/04/17 09:48:25;;;;;;;2.05;0.70;;;;;;;;;;6253403;22;20452;-63
2024/04/17 09:50:55;;;;;;;3.30;0.93;;;;;;;;;;6256164;22;20027;-62
2024/04/17 09:53:23;;;;;;;4.70;0.60;;;;;;;;;;6254529;22;20023;-63
2024/04/17 09:55:55;;;;;;;3.95;0.80;;;;;;;;;;6227802;22;20005;-64
2024/04/17 09:58:22;;;;;;;0.80;0.60;;;;;;;;;;6254853;22;20000;-61
2024/04/17 10:00:50;;;;;;;2.25;0.70;;;;;;;;;;6251843;22;20020;-63
2024/04/17 10:03:17;;;;;;;1.17;0.55;;;;;;;;;;6253280;22;20012;-64
2024/04/17 10:05:46;;;;;;;7.85;0.75;;;;;;;;;;6265822;22;20088;-64
2024/04/17 10:08:12;;;;;;;2.17;0.40;;;;;;;;;;6252849;22;20076;-64
2024/04/17 10:10:40;;;;;;;7.95;1.30;;;;;;;;;;6254112;22;20016;-64
2024/04/17 10:13:09;;;;;;;;;;;;;;;;;;6256679;22;20001;-63
2024/04/17 10:15:46;;;;;;;0.80;0.50;;;;;;;;;;6211461;22;19931;-64
2024/04/17 10:18:12;;;;;;;3.42;0.52;;;;;;;;;;6254221;22;19997;-65
2024/04/17 10:20:40;;;;;;;3.50;1.00;;;;;;;;;;6252926;22;20015;-62
2024/04/17 10:23:11;;;;;;;3.92;0.50;;;;;;;;;;6253238;22;20124;-63
2024/04/17 10:25:48;;;;;;;2.53;0.40;;;;;;;;;;6270701;22;20080;-62
2024/04/17 10:28:18;;;;;;;4.30;0.52;;;;;;;;;;6253619;22;20020;-62
2024/04/17 10:30:47;;;;;;;2.22;0.80;;;;;;;;;;6252002;22;20016;-64
2024/04/17 10:33:20;;;;;;;1.23;0.60;;;;;;;;;;6254434;22;20041;-64
2024/04/17 10:35:50;;;;;;;1.65;0.60;;;;;;;;;;6238477;22;20011;-63
2024/04/17 10:38:15;;;;;;;1.85;0.60;;;;;;;;;;6254669;22;20049;-64
2024/04/17 10:40:43;;;;;;;2.00;0.60;;;;;;;;;;6253498;22;20001;-62
2024/04/17 10:43:11;;;;;;;2.25;0.50;;;;;;;;;;6250490;22;20016;-64
2024/04/17 10:45:57;;;;;;;1.02;0.60;;;;;;;;;;6231284;22;20000;-63
2024/04/17 10:48:24;;;;;;;2.78;0.70;;;;;;;;;;6256317;22;20001;-66
2024/04/17 10:50:53;;;;;;;7.57;0.60;;;;;;;;;;6256422;22;20037;-65
2024/04/17 10:53:21;;;;;;;3.00;0.70;;;;;;;;;;6253837;22;20000;-64
2024/04/17 10:55:51;;;;;;;2.35;0.70;;;;;;;;;;6248309;22;20000;-65
2024/04/17 10:58:17;;;;;;;1.42;0.45;;;;;;;;;;6251522;22;20029;-65
2024/04/17 11:00:49;;;;;;;3.50;0.68;;;;;;;;;;6253137;22;20004;-63
2024/04/17 11:03:15;;;;;;;3.10;0.63;;;;;;;;;;6255370;22;20005;-62
2024/04/17 11:05:43;;;;;;;2.53;0.70;;;;;;;;;;6233431;22;20001;-65
2024/04/17 11:08:10;;;;;;;;;;;;;;;;;;6253102;22;20005;-64
2024/04/17 11:10:38;;;;;;;3.25;0.57;;;;;;;;;;6258802;22;19956;-63
2024/04/17 11:13:14;;;;;;;4.93;0.65;;;;;;;;;;6255212;22;20008;-64
2024/04/17 11:15:48;;;;;;;3.90;0.70;;;;;;;;;;6253765;22;19996;-64
2024/04/17 11:18:14;;;;;;;2.17;0.73;;;;;;;;;;6253004;22;20001;-64
2024/04/17 11:20:43;;;;;;;1.58;0.70;;;;;;;;;;6253562;22;20052;-63
2024/04/17 11:23:09;;;;;;;1.95;0.55;;;;;;;;;;6255119;22;20004;-63
2024/04/17 11:25:38;;;;;;;3.28;0.93;;;;;;;;;;6244719;22;20015;-66
2024/04/17 11:28:04;;;;;;;0.88;0.70;;;;;;;;;;6254559;22;20004;-62
2024/04/17 11:30:32;;;;;;;2.65;0.50;;;;;;;;;;6254842;22;20012;-61
2024/04/17 11:33:04;;;;;;;2.65;1.08;;;;;;;;;;6255679;22;20012;-64
2024/04/17 11:35:33;;;;;;;7.78;0.60;;;;;;;;;;6251527;22;20026;-64
2024/04/17 11:37:58;;;;;;;5.47;0.80;;;;;;;;;;6253687;22;20073;-64
2024/04/17 11:40:27;;;;;;;2.28;0.52;;;;;;;;;;6254641;22;20012;-62
2024/04/17 11:42:52;;;;;;;;;;;;;;;;;;6252293;22;19997;-63
2024/04/17 11:45:21;;;;;;;0.40;0.40;;;;;;;;;;6237544;22;19939;-64
2024/04/17 11:47:46;;;;;;;;;;;;;;;;;;6248969;22;20025;-62
2024/04/17 11:50:20;;;;;;;2.60;0.73;;;;;;;;;;6254324;22;20014;-63
2024/04/17 11:52:45;;;;;;;1.92;0.98;;;;;;;;;;6255010;22;20001;-65
2024/04/17 11:55:14;;;;;;;1.40;0.65;;;;;;;;;;6248790;22;20061;-65
2024/04/17 11:57:40;;;;;;;1.55;0.52;;;;;;;;;;6254063;22;20000;-62
2024/04/17 12:00:19;;;;;;;0.98;0.50;;;;;;;;;;6249512;22;20011;-62
2024/04/17 12:02:49;;;;;;;2.13;0.73;;;;;;;;;;6253315;22;20012;-63
2024/04/17 12:05:20;;;;;;;1.48;0.60;;;;;;;;;;6247608;22;20005;-63
2024/04/17 12:07:48;;;;;;;1.13;0.60;;;;;;;;;;6248525;22;20104;-62
2024/04/17 12:10:17;;;;;;;1.90;0.45;;;;;;;;;;6255841;22;20009;-61
2024/04/17 12:12:42;;;;;;;;;;;;;;;;;;6251083;22;20015;-63
2024/04/17 12:15:11;;;;;;;2.45;0.50;;;;;;;;;;6251915;22;19924;-62
2024/04/17 12:17:39;;;;;;;2.22;0.60;;;;;;;;;;6248966;22;20000;-61
2024/04/17 12:20:10;;;;;;;;;;;;;;;;;;6249626;22;20016;-62
2024/04/17 12:22:39;;;;;;;0.65;0.50;;;;;;;;;;6254408;22;19972;-63
2024/04/17 12:27:51;;;;;;;3.42;0.63;;;;;;;;;;6247722;22;20085;-63
2024/04/17 12:30:17;;;;;;;0.85;0.50;;;;;;;;;;6251392;22;20000;-63
2024/04/17 12:32:47;;;;;;;2.30;0.80;;;;;;;;;;6259281;22;20008;-63
2024/04/17 12:35:16;;;;;;;1.15;0.50;;;;;;;;;;6249437;22;20019;-62
2024/04/17 12:37:47;;;;;;;0.73;0.50;;;;;;;;;;6247924;22;20004;-63
2024/04/17 12:40:15;;;;;;;1.85;0.50;;;;;;;;;;6251308;22;20000;-63
2024/04/17 12:42:44;;;;;;;0.85;0.50;;;;;;;;;;6253316;22;20004;-61
2024/04/17 12:45:12;;;;;;;0.60;0.45;;;;;;;;;;6213207;22;20020;-62
2024/04/17 12:47:38;;;;;;;0.28;0.25;;;;;;;;;;6199376;22;20030;-63
2024/04/17 12:50:09;;;;;;;0.30;0.30;;;;;;;;;;6207127;22;20016;-63
2024/04/17 12:52:38;;;;;;;1.00;0.45;;;;;;;;;;6207826;22;20016;-62
2024/04/17 12:55:09;;;;;;;3.10;0.28;;;;;;;;;;6191125;22;20101;-63
2024/04/17 12:57:40;;;;;;;1.98;0.60;;;;;;;;;;6206651;22;20005;-62
2024/04/17 13:00:07;;;;;;;0.57;0.40;;;;;;;;;;6203422;22;20056;-63
2024/04/17 13:02:35;;;;;;;0.93;0.35;;;;;;;;;;6211162;22;20020;-64
2024/04/17 13:05:01;;;;;;;1.15;0.50;;;;;;;;;;6203886;22;20029;-64
2024/04/17 13:07:30;;;;;;;2.53;0.50;;;;;;;;;;6209606;22;20012;-64
2024/04/17 13:09:56;;;;;;;1.10;0.47;;;;;;;;;;6201598;22;20001;-64
2024/04/17 13:12:27;;;;;;;0.60;0.30;;;;;;;;;;6205141;22;20009;-64
2024/04/17 13:14:53;;;;;;;2.35;0.60;;;;;;;;;;6191750;22;19997;-65
2024/04/17 13:17:22;;;;;;;0.40;0.40;;;;;;;;;;6206716;22;20006;-63
2024/04/17 13:19:47;;;;;;;1.13;0.32;;;;;;;;;;6198288;22;20044;-64
2024/04/17 13:22:16;;;;;;;1.90;0.50;;;;;;;;;;6206597;22;20071;-64
2024/04/17 13:24:42;;;;;;;0.47;0.47;;;;;;;;;;6200758;22;20048;-65
2024/04/17 13:27:10;;;;;;;0.80;0.40;;;;;;;;;;6232989;22;20005;-65
2024/04/17 13:29:39;;;;;;;0.60;0.43;;;;;;;;;;6201974;22;20016;-65
2024/04/17 13:32:07;;;;;;;0.50;0.30;;;;;;;;;;6198272;22;20082;-64
2024/04/17 13:34:33;;;;;;;1.48;0.60;;;;;;;;;;6201051;22;20012;-65
2024/04/17 13:37:01;;;;;;;1.27;0.40;;;;;;;;;;6280653;22;20000;-64
2024/04/17 13:39:27;;;;;;;0.85;0.45;;;;;;;;;;6256575;22;20001;-64
2024/04/17 13:41:56;;;;;;;0.32;0.32;;;;;;;;;;6241872;22;20039;-65
2024/04/17 13:44:23;;;;;;;1.05;0.45;;;;;;;;;;6238765;22;20174;-64
2024/04/17 13:46:54;;;;;;;0.40;0.40;;;;;;;;;;6281986;22;20004;-65
2024/04/17 13:49:24;;;;;;;0.68;0.45;;;;;;;;;;6254351;22;20001;-65
2024/04/17 13:51:52;;;;;;;0.73;0.55;;;;;;;;;;6245130;22;20005;-65
2024/04/17 13:54:19;;;;;;;0.50;0.50;;;;;;;;;;6250145;22;20012;-64
2024/04/17 13:56:47;;;;;;;0.45;0.40;;;;;;;;;;6252293;22;20131;-64
2024/04/17 13:59:13;;;;;;;1.15;0.60;;;;;;;;;;6256232;22;20101;-66
2024/04/17 14:01:43;;;;;;;0.40;0.40;;;;;;;;;;6248336;22;20112;-65
2024/04/17 14:04:11;;;;;;;0.60;0.45;;;;;;;;;;6217644;22;20006;-65
2024/04/17 14:06:40;;;;;;;0.57;0.50;;;;;;;;;;6256339;22;20012;-65
2024/04/17 14:09:05;;;;;;;5.68;0.40;;;;;;;;;;6257212;22;20000;-65
2024/04/17 14:11:34;;;;;;;1.00;0.60;;;;;;;;;;6254075;22;20004;-63
2024/04/17 14:13:59;;;;;;;0.40;0.40;;;;;;;;;;6246358;22;20001;-64
2024/04/17 14:16:28;;;;;;;3.65;0.60;;;;;;;;;;6250794;22;20012;-64
2024/04/17 14:18:53;;;;;;;1.52;0.40;;;;;;;;;;6254796;22;19997;-66
2024/04/17 14:21:24;;;;;;;1.27;0.47;;;;;;;;;;6255134;22;20001;-64
2024/04/17 14:23:50;;;;;;;1.05;0.55;;;;;;;;;;6244814;22;20040;-66
2024/04/17 14:26:24;;;;;;;0.70;0.60;;;;;;;;;;6250961;22;20065;-64
2024/04/17 14:28:50;;;;;;;2.03;0.75;;;;;;;;;;6259278;22;20007;-65
2024/04/17 14:31:18;;;;;;;0.52;0.30;;;;;;;;;;6256641;22;20008;-66
2024/04/17 14:33:44;;;;;;;1.15;0.82;;;;;;;;;;6252640;22;20097;-65
2024/04/17 14:36:13;;;;;;;4.47;1.20;;;;;;;;;;6254434;22;20012;-66
2024/04/17 14:38:44;;;;;;;1.77;1.00;;;;;;;;;;6254608;22;20012;-63
2024/04/17 14:41:13;;;;;;;2.10;1.05;;;;;;;;;;6255209;22;20004;-66
2024/04/17 14:43:38;;;;;;;1.38;0.80;;;;;;;;;;6240804;22;20008;-66
2024/04/17 14:46:07;;;;;;;1.20;0.70;;;;;;;;;;6245216;22;20025;-65
2024/04/17 14:48:33;;;;;;;2.17;1.00;;;;;;;;;;6253188;22;20111;-65
2024/04/17 14:51:03;;;;;;;6.18;2.63;;;;;;;;;;6254408;22;20022;-65
2024/04/17 14:53:29;;;;;;;2.63;1.30;;;;;;;;;;6252984;22;20001;-66